createdAt,value
2023-02-18T00:01:54.315Z,13.00
2023-02-18T00:04:21.553Z,13.00
2023-02-18T00:06:49.836Z,13.00
2023-02-18T00:09:17.204Z,13.10
2023-02-18T00:11:45.339Z,13.00
2023-02-18T00:14:15.387Z,13.10
2023-02-18T00:16:44.439Z,13.10
2023-02-18T00:19:19.955Z,13.00
2023-02-18T00:21:50.423Z,13.00
2023-02-18T00:24:18.042Z,13.00
2023-02-18T00:26:51.572Z,13.00
2023-02-18T00:29:20.142Z,13.00
2023-02-18T00:31:51.719Z,13.00
2023-02-18T00:34:22.869Z,13.00
2023-02-18T00:36:50.470Z,13.10
2023-02-18T00:39:17.569Z,13.10
2023-02-18T00:41:45.118Z,13.10
2023-02-18T00:44:15.420Z,13.10
2023-02-18T00:46:42.547Z,13.10
2023-02-18T00:49:11.089Z,13.10
2023-02-18T00:51:41.149Z,13.10
2023-02-18T00:54:13.497Z,13.10
2023-02-18T00:56:40.990Z,13.00
2023-02-18T00:59:07.910Z,13.10
2023-02-18T01:01:38.215Z,13.10
2023-02-18T01:04:11.014Z,13.10
2023-02-18T01:06:41.947Z,13.10
2023-02-18T01:09:10.050Z,13.10
2023-02-18T01:11:38.016Z,13.10
2023-02-18T01:14:05.188Z,13.20
2023-02-18T01:16:36.814Z,13.10
2023-02-18T01:19:03.922Z,13.10
2023-02-18T01:21:32.467Z,13.10
2023-02-18T01:24:01.102Z,13.10
2023-02-18T01:26:28.172Z,13.10
2023-02-18T01:28:57.922Z,13.10
2023-02-18T01:31:26.409Z,13.00
2023-02-18T01:33:53.972Z,13.10
2023-02-18T01:36:24.958Z,13.10
2023-02-18T01:38:58.971Z,13.10
2023-02-18T01:41:29.720Z,13.10
2023-02-18T01:44:25.083Z,13.10
2023-02-18T01:46:54.469Z,13.10
2023-02-18T01:49:41.561Z,13.20
2023-02-18T01:52:24.337Z,13.20
2023-02-18T01:54:56.672Z,13.20
2023-02-18T01:57:43.846Z,13.20
2023-02-18T02:00:17.097Z,13.20
2023-02-18T02:02:53.981Z,13.20
2023-02-18T02:05:37.752Z,13.20
2023-02-18T02:08:06.740Z,13.20
2023-02-18T02:11:04.819Z,13.20
2023-02-18T02:13:47.168Z,13.20
2023-02-18T02:16:52.639Z,13.20
2023-02-18T02:19:35.715Z,13.30
2023-02-18T02:22:24.751Z,13.20
2023-02-18T02:25:04.511Z,13.30
2023-02-18T02:28:11.887Z,13.20
2023-02-18T02:31:11.945Z,13.20
2023-02-18T02:33:57.675Z,13.20
2023-02-18T02:36:35.923Z,13.20
2023-02-18T02:39:40.915Z,13.20
2023-02-18T02:42:22.219Z,13.10
2023-02-18T02:44:59.261Z,13.10
2023-02-18T02:47:38.507Z,13.10
2023-02-18T02:50:22.479Z,13.00
2023-02-18T02:52:59.833Z,13.00
2023-02-18T02:55:29.103Z,12.90
2023-02-18T02:57:59.252Z,12.90
2023-02-18T03:00:55.632Z,12.90
2023-02-18T03:04:01.096Z,12.90
2023-02-18T03:07:16.025Z,12.80
2023-02-18T03:10:07.003Z,12.90
2023-02-18T03:12:43.777Z,12.80
2023-02-18T03:15:29.908Z,12.80
2023-02-18T03:18:30.672Z,12.90
2023-02-18T03:21:26.519Z,12.90
2023-02-18T03:24:24.447Z,12.90
2023-02-18T03:26:57.627Z,12.90
2023-02-18T03:29:30.758Z,12.90
2023-02-18T03:32:03.195Z,12.90
2023-02-18T03:34:38.436Z,12.90
2023-02-18T03:37:07.440Z,13.00
2023-02-18T03:39:37.905Z,13.00
2023-02-18T03:42:06.674Z,13.00
2023-02-18T03:44:36.320Z,12.90
2023-02-18T03:47:03.713Z,12.90
2023-02-18T03:49:32.030Z,12.90
2023-02-18T03:52:01.018Z,12.80
2023-02-18T03:54:31.599Z,12.80
2023-02-18T03:57:00.391Z,12.80
2023-02-18T03:59:29.935Z,12.80
2023-02-18T04:01:56.873Z,12.80
2023-02-18T04:04:24.105Z,12.70
2023-02-18T04:06:53.106Z,12.70
2023-02-18T04:09:20.971Z,12.70
2023-02-18T04:11:51.527Z,12.70
2023-02-18T04:14:21.634Z,12.70
2023-02-18T04:16:49.740Z,12.70
2023-02-18T04:19:20.208Z,12.60
2023-02-18T04:21:49.306Z,12.60
2023-02-18T04:24:17.323Z,12.70
2023-02-18T04:26:44.948Z,12.60
2023-02-18T04:29:15.832Z,12.60
2023-02-18T04:31:45.381Z,12.60
2023-02-18T04:34:15.602Z,12.60
2023-02-18T04:36:46.316Z,12.60
2023-02-18T04:39:17.553Z,12.60
2023-02-18T04:41:45.820Z,12.60
2023-02-18T04:44:14.401Z,12.60
2023-02-18T04:46:41.983Z,12.60
2023-02-18T04:49:17.111Z,12.60
2023-02-18T04:51:47.636Z,12.60
2023-02-18T04:54:19.401Z,12.60
2023-02-18T04:56:49.556Z,12.60
2023-02-18T04:59:17.262Z,12.50
2023-02-18T05:01:45.072Z,12.50
2023-02-18T05:04:14.179Z,12.50
2023-02-18T05:06:45.457Z,12.50
2023-02-18T05:09:17.710Z,12.60
2023-02-18T05:11:45.303Z,12.60
2023-02-18T05:14:15.737Z,12.50
2023-02-18T05:16:45.164Z,12.50
2023-02-18T05:19:17.070Z,12.50
2023-02-18T05:21:45.280Z,12.60
2023-02-18T05:24:15.569Z,12.60
2023-02-18T05:26:45.096Z,12.60
2023-02-18T05:29:16.021Z,12.50
2023-02-18T05:31:47.497Z,12.50
2023-02-18T05:34:22.047Z,12.60
2023-02-18T05:36:52.912Z,12.60
2023-02-18T05:39:21.401Z,12.60
2023-02-18T05:41:51.158Z,12.60
2023-02-18T05:44:33.694Z,12.60
2023-02-18T05:47:05.411Z,12.60
2023-02-18T05:49:37.009Z,12.60
2023-02-18T05:52:05.758Z,12.60
2023-02-18T05:54:37.464Z,12.60
2023-02-18T05:57:05.092Z,12.70
2023-02-18T05:59:32.446Z,12.70
2023-02-18T06:01:59.692Z,12.60
2023-02-18T06:04:30.963Z,12.60
2023-02-18T06:07:00.234Z,12.60
2023-02-18T06:09:27.351Z,12.60
2023-02-18T06:11:55.435Z,12.60
2023-02-18T06:14:24.415Z,12.60
2023-02-18T06:16:51.991Z,12.60
2023-02-18T06:19:21.336Z,12.50
2023-02-18T06:21:52.166Z,12.50
2023-02-18T06:24:23.269Z,12.50
2023-02-18T06:26:52.518Z,12.50
2023-02-18T06:29:22.571Z,12.50
2023-02-18T06:31:53.051Z,12.50
2023-02-18T06:34:23.865Z,12.50
2023-02-18T06:36:51.941Z,12.50
2023-02-18T06:39:22.684Z,12.60
2023-02-18T06:41:52.508Z,12.60
2023-02-18T06:44:22.780Z,12.60
2023-02-18T06:46:49.764Z,12.60
2023-02-18T06:49:18.101Z,12.60
2023-02-18T06:51:46.001Z,12.60
2023-02-18T06:54:16.299Z,12.60
2023-02-18T06:56:44.582Z,12.70
2023-02-18T06:59:13.110Z,12.70
2023-02-18T07:01:41.612Z,12.70
2023-02-18T07:04:08.686Z,12.80
2023-02-18T07:06:36.997Z,12.80
2023-02-18T07:09:05.669Z,12.80
2023-02-18T07:11:33.903Z,12.80
2023-02-18T07:14:03.304Z,12.80
2023-02-18T07:16:34.036Z,12.90
2023-02-18T07:19:05.822Z,12.90
2023-02-18T07:21:37.568Z,12.90
2023-02-18T07:24:06.235Z,13.00
2023-02-18T07:26:34.005Z,13.00
2023-02-18T07:29:03.634Z,13.00
2023-02-18T07:31:33.320Z,13.00
2023-02-18T07:34:04.157Z,13.00
2023-02-18T07:36:32.904Z,13.00
2023-02-18T07:39:05.215Z,13.00
2023-02-18T07:41:37.320Z,13.00
2023-02-18T07:44:09.383Z,13.00
2023-02-18T07:46:47.362Z,13.10
2023-02-18T07:49:18.478Z,13.10
2023-02-18T07:51:50.827Z,13.10
2023-02-18T07:54:18.359Z,13.10
2023-02-18T07:56:49.266Z,13.10
2023-02-18T07:59:17.451Z,13.10
2023-02-18T08:01:46.154Z,13.20
2023-02-18T08:04:16.769Z,13.10
2023-02-18T08:06:49.195Z,13.10
2023-02-18T08:09:18.404Z,13.20
2023-02-18T08:11:49.183Z,13.10
2023-02-18T08:14:17.093Z,13.20
2023-02-18T08:16:44.360Z,13.30
2023-02-18T08:19:12.231Z,13.50
2023-02-18T08:21:44.638Z,13.30
2023-02-18T08:24:15.594Z,13.30
2023-02-18T08:26:59.176Z,13.50
2023-02-18T08:29:30.094Z,13.40
2023-02-18T08:32:01.279Z,13.40
2023-02-18T08:34:31.588Z,13.40
2023-02-18T08:37:01.181Z,13.30
2023-02-18T08:39:39.605Z,13.30
2023-02-18T08:42:08.030Z,13.30
2023-02-18T08:44:37.367Z,13.30
2023-02-18T08:47:05.746Z,13.30
2023-02-18T08:49:55.143Z,13.50
2023-02-18T08:52:23.550Z,13.90
2023-02-18T08:54:53.265Z,14.00
2023-02-18T08:57:21.227Z,14.00
2023-02-18T08:59:50.609Z,13.90
2023-02-18T09:02:18.098Z,13.90
2023-02-18T09:04:46.295Z,13.80
2023-02-18T09:07:17.212Z,13.80
2023-02-18T09:09:45.367Z,13.80
2023-02-18T09:12:15.927Z,13.80
2023-02-18T09:14:46.401Z,13.80
2023-02-18T09:17:17.608Z,13.80
2023-02-18T09:19:46.252Z,14.00
2023-02-18T09:22:16.957Z,14.20
2023-02-18T09:24:45.769Z,14.30
2023-02-18T09:27:16.841Z,14.20
2023-02-18T09:29:44.594Z,14.40
2023-02-18T09:32:17.807Z,14.60
2023-02-18T09:34:50.568Z,14.60
2023-02-18T09:37:20.421Z,14.40
2023-02-18T09:39:53.294Z,14.30
2023-02-18T09:42:31.088Z,14.30
2023-02-18T09:45:03.486Z,14.30
2023-02-18T09:47:53.113Z,14.20
2023-02-18T09:50:38.183Z,14.30
2023-02-18T09:53:07.336Z,14.40
2023-02-18T09:55:43.061Z,14.40
2023-02-18T09:58:33.485Z,14.50
2023-02-18T10:01:28.994Z,14.50
2023-02-18T10:04:03.601Z,14.50
2023-02-18T10:06:36.738Z,14.60
2023-02-18T10:09:24.716Z,14.50
2023-02-18T10:11:56.568Z,14.60
2023-02-18T10:14:26.455Z,14.40
2023-02-18T10:16:54.438Z,14.40
2023-02-18T10:19:41.816Z,14.50
2023-02-18T10:22:15.136Z,14.60
2023-02-18T10:24:55.355Z,14.50
2023-02-18T10:27:51.034Z,14.70
2023-02-18T10:30:41.789Z,14.70
2023-02-18T10:33:24.992Z,14.70
2023-02-18T10:35:57.769Z,14.90
2023-02-18T10:38:53.518Z,15.00
2023-02-18T10:41:58.447Z,15.20
2023-02-18T10:44:47.769Z,15.20
2023-02-18T10:47:27.954Z,15.10
2023-02-18T10:50:37.117Z,15.20
2023-02-18T10:53:30.121Z,15.70
2023-02-18T10:55:59.025Z,16.00
2023-02-18T10:58:36.482Z,15.80
2023-02-18T11:01:08.941Z,15.70
2023-02-18T11:03:54.761Z,16.10
2023-02-18T11:06:33.828Z,16.00
2023-02-18T11:09:04.620Z,16.40
2023-02-18T11:11:53.647Z,16.50
2023-02-18T11:14:50.621Z,16.60
2023-02-18T11:17:44.886Z,16.30
2023-02-18T11:20:36.613Z,15.90
2023-02-18T11:23:21.892Z,15.80
2023-02-18T11:26:06.427Z,15.70
2023-02-18T11:28:55.209Z,16.00
2023-02-18T11:31:30.142Z,15.80
2023-02-18T11:34:00.568Z,15.60
2023-02-18T11:36:37.746Z,15.40
2023-02-18T11:39:30.591Z,15.30
2023-02-18T11:42:01.386Z,15.30
2023-02-18T11:44:49.772Z,15.20
2023-02-18T11:47:16.680Z,15.10
2023-02-18T11:49:58.595Z,15.10
2023-02-18T11:52:41.957Z,15.00
2023-02-18T11:55:25.742Z,15.00
2023-02-18T11:58:05.789Z,15.00
2023-02-18T12:00:55.676Z,15.10
2023-02-18T12:03:56.988Z,15.30
2023-02-18T12:07:18.004Z,15.30
2023-02-18T12:12:51.601Z,17.40
2023-02-18T12:15:26.670Z,18.40
2023-02-18T12:17:59.984Z,19.70
2023-02-18T12:20:53.624Z,20.10
2023-02-18T12:23:51.029Z,20.10
2023-02-18T12:26:46.130Z,19.20
2023-02-18T12:29:36.238Z,19.60
2023-02-18T12:32:12.488Z,18.90
2023-02-18T12:34:51.899Z,17.80
2023-02-18T12:37:43.691Z,17.60
2023-02-18T12:40:42.858Z,17.50
2023-02-18T12:43:16.055Z,17.00
2023-02-18T12:46:13.839Z,17.00
2023-02-18T12:48:51.050Z,17.10
2023-02-18T12:51:45.826Z,17.90
2023-02-18T12:54:36.008Z,18.90
2023-02-18T12:57:24.668Z,21.40
2023-02-18T13:00:16.609Z,23.70
2023-02-18T13:03:11.522Z,23.50
2023-02-18T13:05:57.224Z,22.90
2023-02-18T13:08:50.423Z,23.20
2023-02-18T13:11:23.347Z,22.80
2023-02-18T13:13:56.457Z,24.10
2023-02-18T13:16:24.700Z,27.20
2023-02-18T13:19:01.470Z,26.20
2023-02-18T13:21:29.682Z,26.70
2023-02-18T13:24:11.070Z,26.50
2023-02-18T13:26:40.270Z,26.20
2023-02-18T13:29:31.430Z,24.60
2023-02-18T13:32:19.416Z,25.10
2023-02-18T13:34:52.619Z,24.00
2023-02-18T13:37:51.788Z,21.70
2023-02-18T13:40:23.407Z,21.40
2023-02-18T13:42:55.101Z,21.50
2023-02-18T13:45:31.112Z,24.20
2023-02-18T13:47:59.486Z,24.60
2023-02-18T13:50:40.601Z,25.20
2023-02-18T13:53:07.914Z,24.00
2023-02-18T13:55:53.785Z,22.70
2023-02-18T13:58:29.395Z,22.90
2023-02-18T14:01:12.070Z,22.00
2023-02-18T14:03:49.354Z,21.10
2023-02-18T14:06:38.981Z,20.30
2023-02-18T14:09:16.119Z,19.50
2023-02-18T14:12:15.116Z,19.00
2023-02-18T14:14:42.618Z,18.50
2023-02-18T14:17:31.683Z,18.30
2023-02-18T14:20:02.025Z,17.90
2023-02-18T14:22:33.564Z,17.90
2023-02-18T14:25:16.344Z,18.40
2023-02-18T14:27:45.439Z,18.50
2023-02-18T14:30:24.079Z,18.30
2023-02-18T14:32:56.499Z,18.50
2023-02-18T14:35:33.039Z,18.60
2023-02-18T14:38:10.989Z,18.10
2023-02-18T14:40:57.928Z,17.90
2023-02-18T14:43:55.310Z,18.00
2023-02-18T14:46:35.109Z,18.40
2023-02-18T14:49:35.682Z,18.40
2023-02-18T14:52:06.792Z,18.60
2023-02-18T14:54:38.396Z,18.00
2023-02-18T14:57:17.855Z,18.10
2023-02-18T14:59:47.511Z,17.60
2023-02-18T15:02:30.973Z,17.10
2023-02-18T15:05:23.404Z,16.90
2023-02-18T15:08:03.594Z,16.50
2023-02-18T15:10:54.083Z,16.30
2023-02-18T15:13:27.328Z,16.20
2023-02-18T15:15:59.002Z,16.00
2023-02-18T15:18:41.378Z,16.00
2023-02-18T15:21:17.007Z,16.00
2023-02-18T15:23:44.454Z,15.80
2023-02-18T15:26:16.580Z,15.80
2023-02-18T15:29:05.517Z,15.80
2023-02-18T15:31:39.537Z,15.70
2023-02-18T15:34:25.218Z,15.70
2023-02-18T15:36:53.816Z,15.70
2023-02-18T15:39:22.865Z,15.60
2023-02-18T15:42:03.858Z,15.50
2023-02-18T15:44:33.836Z,15.50
2023-02-18T15:47:08.268Z,15.50
2023-02-18T15:49:38.612Z,15.40
2023-02-18T15:52:08.821Z,15.40
2023-02-18T15:54:41.218Z,15.40
2023-02-18T15:57:15.029Z,15.30
2023-02-18T15:59:56.791Z,15.20
2023-02-18T16:02:26.056Z,15.20
2023-02-18T16:05:00.526Z,15.20
2023-02-18T16:07:37.321Z,15.10
2023-02-18T16:10:22.432Z,15.10
2023-02-18T16:12:56.645Z,15.10
2023-02-18T16:15:31.290Z,15.10
2023-02-18T16:18:02.084Z,15.00
2023-02-18T16:20:32.592Z,15.00
2023-02-18T16:23:12.542Z,14.90
2023-02-18T16:25:45.018Z,14.90
2023-02-18T16:28:23.418Z,14.80
2023-02-18T16:30:51.001Z,14.80
2023-02-18T16:33:19.666Z,14.80
2023-02-18T16:35:50.302Z,14.70
2023-02-18T16:38:21.650Z,14.70
2023-02-18T16:40:49.791Z,14.70
2023-02-18T16:43:29.664Z,14.60
2023-02-18T16:46:05.234Z,14.60
2023-02-18T16:48:35.294Z,14.60
2023-02-18T16:51:07.653Z,14.60
2023-02-18T16:53:35.204Z,14.60
2023-02-18T16:56:03.002Z,14.60
2023-02-18T16:58:31.286Z,14.60
2023-02-18T17:00:58.850Z,14.60
2023-02-18T17:03:26.757Z,14.70
2023-02-18T17:05:54.330Z,14.60
2023-02-18T17:08:24.746Z,14.60
2023-02-18T17:10:54.266Z,14.60
2023-02-18T17:13:32.233Z,14.60
2023-02-18T17:16:01.583Z,14.60
2023-02-18T17:18:29.346Z,14.60
2023-02-18T17:20:57.463Z,14.60
2023-02-18T17:23:25.248Z,14.60
2023-02-18T17:25:53.902Z,14.60
2023-02-18T17:28:21.629Z,14.60
2023-02-18T17:30:56.859Z,14.60
2023-02-18T17:33:25.372Z,14.60
2023-02-18T17:35:53.484Z,14.70
2023-02-18T17:38:20.959Z,14.70
2023-02-18T17:40:51.474Z,14.70
2023-02-18T17:43:19.407Z,14.70
2023-02-18T17:45:52.487Z,14.70
2023-02-18T17:48:20.252Z,14.70
2023-02-18T17:50:48.252Z,14.70
2023-02-18T17:53:17.682Z,14.60
2023-02-18T17:55:47.214Z,14.60
2023-02-18T17:58:15.590Z,14.60
2023-02-18T18:00:53.339Z,14.60
2023-02-18T18:03:23.317Z,14.60
2023-02-18T18:05:57.033Z,14.60
2023-02-18T18:08:25.208Z,14.60
2023-02-18T18:10:59.295Z,14.60
2023-02-18T18:13:30.628Z,14.60
2023-02-18T18:15:58.893Z,14.50
2023-02-18T18:18:27.962Z,14.60
2023-02-18T18:21:00.061Z,14.50
2023-02-18T18:23:30.023Z,14.50
2023-02-18T18:25:59.241Z,14.50
2023-02-18T18:28:28.293Z,14.40
2023-02-18T18:30:57.808Z,14.40
2023-02-18T18:33:28.741Z,14.40
2023-02-18T18:35:59.566Z,14.40
2023-02-18T18:38:29.441Z,14.40
2023-02-18T18:40:57.894Z,14.30
2023-02-18T18:43:32.936Z,14.30
2023-02-18T18:46:02.088Z,14.40
2023-02-18T18:48:30.045Z,14.30
2023-02-18T18:50:59.184Z,14.30
2023-02-18T18:53:30.964Z,14.30
2023-02-18T18:56:05.802Z,14.30
2023-02-18T18:58:34.520Z,14.30
2023-02-18T19:01:07.534Z,14.30
2023-02-18T19:03:38.735Z,14.20
2023-02-18T19:06:06.677Z,14.20
2023-02-18T19:08:34.877Z,14.20
2023-02-18T19:11:03.754Z,14.20
2023-02-18T19:13:34.156Z,14.20
2023-02-18T19:16:43.344Z,14.20
2023-02-18T19:19:12.446Z,14.10
2023-02-18T19:21:42.576Z,14.10
2023-02-18T19:24:10.101Z,14.10
2023-02-18T19:26:38.434Z,14.10
2023-02-18T19:29:06.481Z,14.10
2023-02-18T19:31:36.390Z,14.10
2023-02-18T19:34:04.363Z,14.00
2023-02-18T19:36:32.216Z,14.10
2023-02-18T19:38:59.921Z,14.00
2023-02-18T19:41:28.287Z,14.00
2023-02-18T19:43:55.744Z,14.00
2023-02-18T19:46:23.994Z,14.00
2023-02-18T19:48:54.317Z,14.00
2023-02-18T19:51:23.581Z,14.00
2023-02-18T19:53:51.457Z,14.00
2023-02-18T19:56:19.733Z,14.00
2023-02-18T19:58:48.118Z,14.00
2023-02-18T20:01:19.656Z,14.00
2023-02-18T20:03:47.846Z,14.00
2023-02-18T20:06:21.402Z,14.00
2023-02-18T20:08:50.585Z,14.00
2023-02-18T20:11:23.577Z,14.00
2023-02-18T20:13:53.140Z,14.00
2023-02-18T20:16:20.926Z,13.90
2023-02-18T20:18:49.828Z,13.90
2023-02-18T20:21:19.523Z,14.00
2023-02-18T20:23:47.729Z,13.90
2023-02-18T20:26:17.669Z,13.90
2023-02-18T20:28:46.390Z,13.90
2023-02-18T20:31:17.800Z,13.90
2023-02-18T20:33:46.465Z,13.80
2023-02-18T20:36:15.119Z,13.80
2023-02-18T20:38:43.985Z,13.80
2023-02-18T20:41:18.380Z,13.80
2023-02-18T20:43:47.570Z,13.80
2023-02-18T20:46:18.607Z,13.80
2023-02-18T20:48:49.968Z,13.80
2023-02-18T20:51:22.423Z,13.70
2023-02-18T20:53:51.881Z,13.70
2023-02-18T20:56:22.536Z,13.70
2023-02-18T20:58:51.830Z,13.70
2023-02-18T21:01:21.523Z,13.70
2023-02-18T21:03:49.623Z,13.70
2023-02-18T21:06:21.243Z,13.60
2023-02-18T21:08:52.913Z,13.60
2023-02-18T21:11:26.277Z,13.60
2023-02-18T21:13:56.770Z,13.50
2023-02-18T21:16:30.127Z,13.50
2023-02-18T21:18:58.751Z,13.50
2023-02-18T21:21:27.162Z,13.40
2023-02-18T21:23:54.904Z,13.50
2023-02-18T21:26:25.318Z,13.40
2023-02-18T21:28:56.267Z,13.40
2023-02-18T21:31:25.226Z,13.40
2023-02-18T21:33:55.247Z,13.30
2023-02-18T21:36:25.057Z,13.30
2023-02-18T21:38:54.440Z,13.30
2023-02-18T21:41:23.115Z,13.20
2023-02-18T21:43:51.992Z,13.20
2023-02-18T21:46:31.824Z,13.20
2023-02-18T21:49:03.846Z,13.20
2023-02-18T21:51:56.545Z,13.20
2023-02-18T21:54:34.597Z,13.10
2023-02-18T21:57:06.212Z,13.10
2023-02-18T21:59:34.464Z,13.00
2023-02-18T22:02:02.832Z,13.10
2023-02-18T22:04:33.021Z,13.10
2023-02-18T22:07:01.339Z,13.00
2023-02-18T22:09:28.833Z,13.00
2023-02-18T22:11:56.052Z,12.90
2023-02-18T22:14:23.248Z,13.00
2023-02-18T22:16:50.603Z,12.90
2023-02-18T22:19:18.465Z,12.90
2023-02-18T22:21:45.974Z,13.00
2023-02-18T22:24:14.673Z,12.90
2023-02-18T22:26:43.873Z,12.90
2023-02-18T22:29:13.557Z,12.90
2023-02-18T22:31:41.024Z,12.90
2023-02-18T22:34:10.941Z,12.90
2023-02-18T22:36:38.238Z,12.80
2023-02-18T22:39:06.007Z,12.80
2023-02-18T22:41:33.646Z,12.80
2023-02-18T22:44:11.370Z,12.80
2023-02-18T22:46:39.106Z,12.80
2023-02-18T22:49:07.213Z,12.90
2023-02-18T22:51:40.145Z,12.80
2023-02-18T22:54:13.208Z,12.80
2023-02-18T22:56:40.616Z,12.90
2023-02-18T22:59:10.658Z,12.90
2023-02-18T23:01:40.152Z,12.90
2023-02-18T23:04:12.932Z,12.90
2023-02-18T23:06:41.941Z,12.90
2023-02-18T23:09:12.598Z,12.90
2023-02-18T23:11:40.908Z,12.90
2023-02-18T23:14:20.001Z,12.90
2023-02-18T23:17:08.789Z,12.80
2023-02-18T23:19:37.201Z,12.90
2023-02-18T23:22:04.325Z,12.90
2023-02-18T23:24:37.333Z,12.90
2023-02-18T23:27:05.213Z,12.90
2023-02-18T23:29:32.782Z,12.90
2023-02-18T23:32:00.210Z,12.90
2023-02-18T23:34:27.467Z,12.90
2023-02-18T23:36:56.653Z,12.90
2023-02-18T23:39:24.424Z,12.90
2023-02-18T23:41:52.837Z,13.00
2023-02-18T23:44:22.366Z,13.00
2023-02-18T23:46:49.277Z,13.20
2023-02-18T23:49:17.665Z,13.20
2023-02-18T23:51:45.138Z,13.10
2023-02-18T23:54:12.243Z,13.10
2023-02-18T23:56:39.336Z,13.10
2023-02-18T23:59:06.876Z,13.10
